Time;durP1;ratioP1;P1;durP2;ratioP2;P2;SDS_P1;SDS_P2;PMS_P1;PMS_P2;Temp;Humidity;BMP_temperature;BMP_pressure;BME280_temperature;BME280_humidity;BME280_pressure;Samples;Min_cycle;Max_cycle;Signal;HPM_P1;HPM_P2
2021/03/16 00:01:27;;;;;;;6.75;1.05;;;4.20;99.90;;;;;;5107854;28;20038;-69
2021/03/16 00:04:11;;;;;;;7.80;1.40;;;4.20;99.90;;;;;;5102988;28;20184;-69
2021/03/16 00:06:55;;;;;;;8.05;1.55;;;4.20;99.90;;;;;;5075104;28;20121;-69
2021/03/16 00:09:39;;;;;;;12.18;1.67;;;4.20;99.90;;;;;;5095258;28;20069;-70
2021/03/16 00:12:24;;;;;;;10.73;1.25;;;4.20;99.90;;;;;;5098578;28;20549;-69
2021/03/16 00:15:13;;;;;;;8.25;1.23;;;4.20;99.90;;;;;;5100915;28;20039;-69
2021/03/16 00:17:58;;;;;;;7.20;1.23;;;4.10;99.90;;;;;;5099197;28;20046;-69
2021/03/16 00:20:43;;;;;;;8.75;1.20;;;4.00;99.90;;;;;;5100619;28;20153;-70
2021/03/16 00:23:28;;;;;;;6.78;0.90;;;4.00;99.90;;;;;;5106764;28;20028;-69
2021/03/16 00:26:12;;;;;;;7.85;1.10;;;4.10;99.90;;;;;;5111479;28;20121;-69
2021/03/16 00:28:56;;;;;;;6.63;1.10;;;4.10;99.90;;;;;;5111575;28;20080;-69
2021/03/16 00:31:40;;;;;;;7.32;1.00;;;4.10;99.90;;;;;;5094610;28;20111;-70
2021/03/16 00:34:25;;;;;;;10.90;1.10;;;4.10;99.90;;;;;;5092339;28;20034;-69
2021/03/16 00:37:09;;;;;;;6.63;1.08;;;4.10;99.90;;;;;;5116517;27;20529;-69
2021/03/16 00:39:54;;;;;;;12.02;1.17;;;4.20;99.90;;;;;;5109534;28;20036;-69
2021/03/16 00:42:38;;;;;;;7.25;0.90;;;4.20;99.90;;;;;;5093114;28;20042;-69
2021/03/16 00:45:22;;;;;;;7.07;1.20;;;4.20;99.90;;;;;;5092634;28;20084;-69
2021/03/16 00:48:13;;;;;;;6.15;0.70;;;4.20;99.90;;;;;;5111089;28;20058;-69
2021/03/16 00:50:57;;;;;;;7.45;1.00;;;4.20;99.90;;;;;;5105031;28;20050;-69
2021/03/16 00:53:41;;;;;;;5.40;0.95;;;4.20;99.90;;;;;;5110703;28;20027;-69
2021/03/16 00:56:26;;;;;;;7.65;1.00;;;4.20;99.90;;;;;;5099485;28;20038;-69
2021/03/16 00:59:11;;;;;;;8.57;0.80;;;4.20;99.90;;;;;;5092280;28;20023;-70
2021/03/16 01:01:55;;;;;;;7.53;0.73;;;4.30;99.90;;;;;;5094875;28;20055;-69
2021/03/16 01:04:39;;;;;;;6.47;1.00;;;4.30;99.90;;;;;;5110535;28;20031;-70
2021/03/16 01:07:23;;;;;;;7.45;1.10;;;4.30;99.90;;;;;;5092676;28;20027;-70
2021/03/16 01:10:14;;;;;;;8.10;0.90;;;4.30;99.90;;;;;;5091693;28;20204;-69
2021/03/16 01:12:58;;;;;;;4.97;1.13;;;4.30;99.90;;;;;;5092104;28;20085;-69
2021/03/16 01:15:43;;;;;;;8.05;0.98;;;4.30;99.90;;;;;;5091742;28;20042;-69
2021/03/16 01:18:27;;;;;;;6.15;0.80;;;4.30;99.90;;;;;;5110328;27;20076;-69
2021/03/16 01:21:12;;;;;;;10.32;1.05;;;4.30;99.90;;;;;;5110151;28;20166;-70
2021/03/16 01:23:56;;;;;;;7.18;0.60;;;4.40;99.90;;;;;;5100102;27;20035;-69
2021/03/16 01:26:41;;;;;;;11.00;1.67;;;4.40;99.90;;;;;;5105566;28;20036;-69
2021/03/16 01:29:25;;;;;;;6.80;1.02;;;4.40;99.90;;;;;;5105880;28;20032;-69
2021/03/16 01:32:09;;;;;;;15.35;1.65;;;4.40;99.90;;;;;;5102743;28;20038;-69
2021/03/16 01:34:54;;;;;;;8.68;1.17;;;4.30;99.90;;;;;;5090037;28;20035;-69
2021/03/16 01:37:39;;;;;;;6.20;1.00;;;4.40;99.90;;;;;;5108553;28;20518;-70
2021/03/16 01:40:42;;;;;;;6.10;0.68;;;4.40;99.90;;;;;;5105296;28;20058;-69
2021/03/16 01:43:31;;;;;;;6.20;0.90;;;4.40;99.90;;;;;;5105034;28;20035;-69
2021/03/16 01:46:18;;;;;;;7.82;0.98;;;4.40;99.90;;;;;;5106299;28;20030;-69
2021/03/16 01:49:06;;;;;;;10.57;1.20;;;4.40;99.90;;;;;;5098447;28;20412;-69
2021/03/16 01:51:51;;;;;;;9.68;0.95;;;4.40;99.90;;;;;;5107204;28;20058;-70
2021/03/16 01:54:41;;;;;;;10.15;1.00;;;4.30;99.90;;;;;;5104096;28;20070;-70
2021/03/16 01:57:29;;;;;;;8.00;1.00;;;4.30;99.90;;;;;;5102997;28;20408;-69
2021/03/16 02:00:14;;;;;;;12.10;1.17;;;4.30;99.90;;;;;;5090121;28;20038;-69
2021/03/16 02:03:00;;;;;;;4.85;0.80;;;4.30;99.90;;;;;;5108217;28;20047;-69
2021/03/16 02:05:45;;;;;;;11.38;1.10;;;4.30;99.90;;;;;;5076763;28;20397;-69
2021/03/16 02:08:54;;;;;;;8.95;0.90;;;4.40;99.90;;;;;;5095998;28;20035;-69
2021/03/16 02:11:47;;;;;;;4.70;0.70;;;4.40;99.90;;;;;;5075975;28;20122;-69
2021/03/16 02:14:45;;;;;;;6.70;0.80;;;4.30;99.90;;;;;;5106106;28;20043;-70
2021/03/16 02:17:34;;;;;;;6.15;0.90;;;4.40;99.90;;;;;;5103369;28;20030;-69
2021/03/16 02:20:33;;;;;;;6.68;0.75;;;4.40;99.90;;;;;;5109994;28;20019;-70
2021/03/16 02:23:36;;;;;;;9.40;0.90;;;4.40;99.90;;;;;;5089947;28;20101;-69
2021/03/16 02:26:27;;;;;;;7.45;0.95;;;4.40;99.90;;;;;;5113340;28;20027;-70
2021/03/16 02:29:21;;;;;;;5.97;0.88;;;4.40;99.90;;;;;;5107666;28;20037;-69
2021/03/16 02:32:09;;;;;;;8.05;0.95;;;4.40;99.90;;;;;;5094717;28;20119;-69
2021/03/16 02:34:58;;;;;;;7.32;1.00;;;4.30;99.90;;;;;;5113696;28;20123;-69
2021/03/16 02:37:44;;;;;;;9.90;1.08;;;4.30;99.90;;;;;;5111150;28;20048;-69
2021/03/16 02:40:30;;;;;;;9.38;1.00;;;4.30;99.90;;;;;;5111911;28;20435;-70
2021/03/16 02:43:16;;;;;;;5.85;1.25;;;4.30;99.90;;;;;;5096621;28;20544;-69
2021/03/16 02:46:03;;;;;;;10.68;1.15;;;4.30;99.90;;;;;;5095141;28;20034;-70
2021/03/16 02:48:48;;;;;;;7.72;0.88;;;4.30;99.90;;;;;;5112300;28;20089;-69
2021/03/16 02:51:35;;;;;;;7.68;1.23;;;4.30;99.90;;;;;;5112036;28;20431;-69
2021/03/16 02:54:21;;;;;;;6.38;1.05;;;4.40;99.90;;;;;;5093084;28;20032;-69
2021/03/16 02:57:06;;;;;;;7.13;1.13;;;4.40;99.90;;;;;;5094150;28;20468;-69
2021/03/16 02:59:52;;;;;;;4.65;0.98;;;4.40;99.90;;;;;;5095828;28;20032;-70
2021/03/16 03:02:39;;;;;;;8.07;1.10;;;4.40;99.90;;;;;;5093994;28;20073;-70
2021/03/16 03:05:25;;;;;;;6.32;0.80;;;4.40;99.90;;;;;;5128206;27;20028;-69
2021/03/16 03:08:14;;;;;;;9.95;1.23;;;4.40;99.90;;;;;;5104875;28;20031;-69
2021/03/16 03:10:58;;;;;;;10.13;1.08;;;4.30;99.90;;;;;;5111220;28;20389;-70
2021/03/16 03:13:43;;;;;;;8.82;1.08;;;4.30;99.90;;;;;;5111400;28;20507;-69
2021/03/16 03:16:27;;;;;;;10.85;1.20;;;4.40;99.90;;;;;;5103403;28;20023;-71
2021/03/16 03:19:11;;;;;;;4.63;0.60;;;4.40;99.90;;;;;;5112576;28;20092;-70
2021/03/16 03:22:04;;;;;;;8.77;1.38;;;4.30;99.90;;;;;;5092800;28;20076;-69
2021/03/16 03:24:59;;;;;;;8.77;0.90;;;4.30;99.90;;;;;;5111438;28;20043;-69
2021/03/16 03:27:48;;;;;;;8.60;1.00;;;4.20;99.90;;;;;;5113093;28;20030;-69
2021/03/16 03:30:33;;;;;;;11.80;1.75;;;4.20;99.90;;;;;;5104746;28;20392;-69
2021/03/16 03:33:21;;;;;;;9.32;1.00;;;4.20;99.90;;;;;;5079544;28;20081;-70
2021/03/16 03:36:05;;;;;;;12.65;1.17;;;4.20;99.90;;;;;;5111246;28;20027;-70
2021/03/16 03:38:53;;;;;;;8.00;1.55;;;4.30;99.90;;;;;;5110181;28;20019;-70
2021/03/16 03:41:38;;;;;;;12.48;1.50;;;4.20;99.90;;;;;;5092591;28;20081;-69
2021/03/16 03:44:24;;;;;;;7.32;0.80;;;4.30;99.90;;;;;;5094042;28;20069;-69
2021/03/16 03:47:11;;;;;;;6.32;1.15;;;4.30;99.90;;;;;;5108943;28;20564;-69
2021/03/16 03:49:56;;;;;;;6.70;1.08;;;4.20;99.90;;;;;;5110896;28;20024;-69
2021/03/16 03:52:42;;;;;;;7.53;0.98;;;4.20;99.90;;;;;;5095643;28;20079;-69
2021/03/16 03:55:28;;;;;;;7.57;1.00;;;4.10;99.90;;;;;;5109797;28;20043;-69
2021/03/16 03:58:15;;;;;;;8.57;1.10;;;4.20;99.90;;;;;;5097457;28;20058;-70
2021/03/16 04:01:01;;;;;;;7.60;1.15;;;4.10;99.90;;;;;;5110823;28;20039;-69
2021/03/16 04:03:45;;;;;;;10.13;1.08;;;4.00;99.90;;;;;;5093324;28;20081;-70
2021/03/16 04:06:31;;;;;;;5.20;0.90;;;4.10;99.90;;;;;;5091398;28;20028;-69
2021/03/16 04:09:15;;;;;;;7.20;1.10;;;4.10;99.90;;;;;;5110338;28;20028;-69
2021/03/16 04:12:00;;;;;;;8.70;1.20;;;4.10;99.90;;;;;;5111090;28;20028;-69
2021/03/16 04:14:45;;;;;;;10.10;1.38;;;4.10;99.90;;;;;;5109286;28;20031;-69
2021/03/16 04:17:30;;;;;;;7.78;1.63;;;4.10;99.90;;;;;;5093315;28;20031;-69
2021/03/16 04:20:15;;;;;;;8.43;0.98;;;4.20;99.90;;;;;;5110747;28;20051;-71
2021/03/16 04:23:00;;;;;;;5.82;0.95;;;4.20;99.90;;;;;;5108848;28;20036;-70
2021/03/16 04:25:47;;;;;;;9.77;1.13;;;4.20;99.90;;;;;;5092125;28;20039;-69
2021/03/16 04:28:31;;;;;;;10.23;1.45;;;4.10;99.90;;;;;;5092374;28;20034;-69
2021/03/16 04:31:15;;;;;;;6.15;0.90;;;4.10;99.90;;;;;;5091865;28;20027;-69
2021/03/16 04:33:59;;;;;;;7.05;1.48;;;4.10;99.90;;;;;;5099641;28;20399;-69
2021/03/16 04:36:43;;;;;;;13.60;1.65;;;4.10;99.90;;;;;;5124240;27;20093;-68
2021/03/16 04:39:28;;;;;;;10.00;1.40;;;4.10;99.90;;;;;;5076619;28;20118;-68
2021/03/16 04:42:12;;;;;;;9.20;2.15;;;4.10;99.90;;;;;;5094955;28;20088;-71
2021/03/16 04:44:56;;;;;;;9.55;1.50;;;4.10;99.90;;;;;;5085401;28;20039;-70
2021/03/16 04:47:40;;;;;;;14.45;1.92;;;4.10;99.90;;;;;;5109619;28;20032;-69
2021/03/16 04:50:25;;;;;;;8.25;1.23;;;4.10;99.90;;;;;;5076281;28;20028;-71
2021/03/16 04:53:10;;;;;;;16.23;2.03;;;4.00;99.90;;;;;;5091130;28;20077;-71
2021/03/16 04:55:54;;;;;;;8.80;1.45;;;3.90;99.90;;;;;;5109700;28;20040;-71
2021/03/16 04:58:38;;;;;;;10.63;1.58;;;4.00;99.90;;;;;;5108618;28;20030;-71
2021/03/16 05:01:23;;;;;;;11.60;1.58;;;3.90;99.90;;;;;;5090143;28;20130;-71
2021/03/16 05:04:07;;;;;;;6.10;1.33;;;3.90;99.90;;;;;;5095248;28;20106;-71
2021/03/16 05:06:51;;;;;;;10.48;1.55;;;3.90;99.90;;;;;;5070808;28;20069;-71
2021/03/16 05:09:35;;;;;;;9.77;1.60;;;3.90;99.90;;;;;;5107291;28;20044;-71
2021/03/16 05:12:20;;;;;;;10.45;1.52;;;3.90;99.90;;;;;;5092001;28;20123;-72
2021/03/16 05:15:06;;;;;;;9.30;1.52;;;3.90;99.90;;;;;;5089547;28;20039;-70
2021/03/16 05:17:50;;;;;;;13.98;1.98;;;3.70;99.90;;;;;;5108431;28;20062;-70
2021/03/16 05:20:40;;;;;;;6.30;1.10;;;3.70;99.90;;;;;;5109040;28;20023;-70
2021/03/16 05:23:24;;;;;;;6.28;1.35;;;3.70;99.90;;;;;;5108584;28;20036;-70
2021/03/16 05:26:09;;;;;;;12.02;1.77;;;3.70;99.90;;;;;;5091834;28;20112;-71
2021/03/16 05:28:55;;;;;;;16.50;1.90;;;3.70;99.90;;;;;;5106498;28;20031;-71
2021/03/16 05:31:39;;;;;;;14.88;1.88;;;3.70;99.90;;;;;;5103741;28;20081;-71
2021/03/16 05:34:23;;;;;;;17.08;2.72;;;3.60;99.90;;;;;;5109002;28;20027;-71
2021/03/16 05:37:08;;;;;;;15.63;2.35;;;3.60;99.90;;;;;;5108116;28;20030;-70
2021/03/16 05:39:52;;;;;;;12.23;1.92;;;3.60;99.90;;;;;;5103587;28;20036;-70
2021/03/16 05:42:38;;;;;;;11.52;1.92;;;3.60;99.90;;;;;;5090961;28;20127;-71
2021/03/16 05:45:27;;;;;;;16.40;2.42;;;3.50;99.90;;;;;;5108745;28;20035;-70
2021/03/16 05:48:13;;;;;;;13.38;2.72;;;3.50;99.90;;;;;;5106911;28;20510;-71
2021/03/16 05:51:00;;;;;;;14.20;2.05;;;3.40;99.90;;;;;;5109371;28;20038;-71
2021/03/16 05:53:50;;;;;;;12.98;2.80;;;3.50;99.90;;;;;;5089774;28;20042;-70
2021/03/16 05:56:34;;;;;;;10.80;2.15;;;3.50;99.90;;;;;;5107400;28;20205;-71
2021/03/16 05:59:19;;;;;;;11.63;2.15;;;3.50;99.90;;;;;;5106640;28;20042;-70
2021/03/16 06:02:04;;;;;;;15.93;1.90;;;3.60;99.90;;;;;;5103756;28;20042;-70
2021/03/16 06:04:49;;;;;;;14.70;1.85;;;3.60;99.90;;;;;;5091206;28;20034;-71
2021/03/16 06:07:33;;;;;;;7.78;1.58;;;3.60;99.90;;;;;;5105932;28;20369;-70
2021/03/16 06:10:20;;;;;;;12.48;1.98;;;3.60;99.90;;;;;;5108507;28;20145;-70
2021/03/16 06:13:12;;;;;;;15.48;2.30;;;3.80;99.90;;;;;;5108812;28;20058;-70
2021/03/16 06:15:59;;;;;;;8.57;1.95;;;3.80;99.90;;;;;;5109226;28;20220;-70
2021/03/16 06:18:45;;;;;;;13.23;2.72;;;3.80;99.90;;;;;;5098682;28;20041;-70
2021/03/16 06:21:30;;;;;;;15.90;2.10;;;3.90;99.90;;;;;;5108226;28;20036;-70
2021/03/16 06:24:14;;;;;;;16.13;2.75;;;3.90;99.90;;;;;;5107165;28;20050;-71
2021/03/16 06:26:59;;;;;;;10.52;1.92;;;3.90;99.90;;;;;;5108176;28;20093;-71
2021/03/16 06:29:46;;;;;;;10.45;1.67;;;4.00;99.90;;;;;;5092107;28;20172;-70
2021/03/16 06:32:36;;;;;;;10.10;1.48;;;4.10;99.90;;;;;;5109593;28;20050;-70
2021/03/16 06:35:21;;;;;;;11.68;1.40;;;4.10;99.90;;;;;;5109325;28;20112;-70
2021/03/16 06:38:08;;;;;;;6.32;1.40;;;4.10;99.90;;;;;;5084042;28;20437;-70
2021/03/16 06:41:12;;;;;;;9.40;1.52;;;4.10;99.90;;;;;;5089351;28;20043;-70
2021/03/16 06:44:04;;;;;;;11.50;1.55;;;4.10;99.90;;;;;;5078273;28;20397;-70
2021/03/16 06:46:57;;;;;;;10.73;1.60;;;4.20;99.90;;;;;;5109027;28;20500;-70
2021/03/16 06:49:42;;;;;;;13.45;1.75;;;4.30;99.90;;;;;;5093291;28;20083;-70
2021/03/16 06:52:27;;;;;;;11.65;1.10;;;4.40;99.90;;;;;;5104671;28;20488;-70
2021/03/16 06:55:13;;;;;;;9.40;1.52;;;4.40;99.90;;;;;;5105791;28;20459;-70
2021/03/16 06:58:05;;;;;;;6.82;1.27;;;4.60;99.90;;;;;;5101759;28;20074;-70
2021/03/16 07:00:50;;;;;;;9.50;1.48;;;4.60;99.90;;;;;;5102143;28;20229;-69
2021/03/16 07:03:35;;;;;;;8.68;1.13;;;4.70;99.90;;;;;;5115544;28;20539;-69
2021/03/16 07:06:20;;;;;;;12.43;1.33;;;4.80;99.90;;;;;;5094969;28;20090;-69
2021/03/16 07:09:05;;;;;;;5.93;1.45;;;4.90;99.90;;;;;;5092437;28;20127;-70
2021/03/16 07:11:52;;;;;;;7.50;1.88;;;4.90;99.90;;;;;;5109969;28;20036;-70
2021/03/16 07:14:37;;;;;;;10.45;1.30;;;5.10;99.90;;;;;;5094646;28;20065;-70
2021/03/16 07:17:23;;;;;;;7.68;1.27;;;5.20;99.90;;;;;;5111927;28;20019;-69
2021/03/16 07:20:08;;;;;;;9.45;0.85;;;5.30;99.90;;;;;;5094460;28;20507;-69
2021/03/16 07:22:56;;;;;;;8.20;1.20;;;5.20;99.90;;;;;;5109539;28;20039;-70
2021/03/16 07:25:41;;;;;;;10.70;1.00;;;5.20;99.90;;;;;;5093767;28;20102;-69
2021/03/16 07:28:25;;;;;;;9.48;1.00;;;5.30;99.90;;;;;;5112260;28;20061;-70
2021/03/16 07:31:10;;;;;;;6.22;1.20;;;5.30;99.90;;;;;;5091020;28;20036;-69
2021/03/16 07:33:55;;;;;;;12.10;1.38;;;5.20;99.90;;;;;;5098934;28;20027;-69
2021/03/16 07:36:40;;;;;;;9.43;1.30;;;5.30;99.90;;;;;;5103119;28;20100;-69
2021/03/16 07:39:25;;;;;;;7.53;1.10;;;5.50;99.90;;;;;;5112095;28;20070;-69
2021/03/16 07:42:10;;;;;;;6.72;1.40;;;5.70;99.90;;;;;;5111967;28;20080;-69
2021/03/16 07:44:55;;;;;;;9.57;1.55;;;5.90;99.90;;;;;;5082753;28;20449;-69
2021/03/16 07:47:40;;;;;;;9.77;1.38;;;5.90;99.90;;;;;;5111654;28;20042;-69
2021/03/16 07:50:31;;;;;;;14.63;1.42;;;5.80;99.90;;;;;;5110963;28;20055;-69
2021/03/16 07:53:27;;;;;;;9.07;1.38;;;5.60;99.90;;;;;;5107075;28;20031;-70
2021/03/16 07:56:13;;;;;;;13.13;1.88;;;5.60;99.90;;;;;;5111809;28;20138;-70
2021/03/16 07:58:58;;;;;;;9.35;1.20;;;5.60;99.90;;;;;;5093439;28;20093;-69
2021/03/16 08:01:49;;;;;;;10.63;1.25;;;5.70;99.90;;;;;;5095453;28;20074;-70
2021/03/16 08:04:38;;;;;;;7.35;1.30;;;5.90;99.90;;;;;;5090251;28;20166;-69
2021/03/16 08:07:24;;;;;;;11.68;1.48;;;6.00;99.90;;;;;;5108611;27;20165;-69
2021/03/16 08:10:10;;;;;;;8.05;1.90;;;6.00;99.90;;;;;;5110480;28;20040;-69
2021/03/16 08:12:59;;;;;;;12.02;1.50;;;6.00;99.90;;;;;;5075895;28;20185;-70
2021/03/16 08:15:56;;;;;;;14.15;1.83;;;5.90;99.90;;;;;;5112051;27;20042;-69
2021/03/16 08:18:41;;;;;;;5.45;0.93;;;6.00;99.90;;;;;;5111735;28;20134;-70
2021/03/16 08:21:35;;;;;;;4.35;0.90;;;6.00;99.90;;;;;;5110429;28;20031;-69
2021/03/16 08:24:20;;;;;;;5.80;1.20;;;5.90;99.90;;;;;;5109437;28;20038;-69
2021/03/16 08:27:07;;;;;;;8.05;1.45;;;5.90;99.90;;;;;;5095594;28;20061;-69
2021/03/16 08:29:52;;;;;;;12.43;1.40;;;5.80;99.90;;;;;;5111357;28;20034;-69
2021/03/16 08:32:37;;;;;;;7.93;1.15;;;6.00;99.90;;;;;;5090603;28;20568;-69
2021/03/16 08:35:21;;;;;;;8.77;1.33;;;6.10;99.90;;;;;;5093127;27;20105;-69
2021/03/16 08:38:06;;;;;;;8.43;1.40;;;6.30;99.90;;;;;;5107573;28;20111;-69
2021/03/16 08:41:13;;;;;;;10.98;1.60;;;6.50;99.90;;;;;;5108368;28;20032;-68
2021/03/16 08:43:57;;;;;;;7.43;1.60;;;6.60;99.90;;;;;;5103405;28;20081;-69
2021/03/16 08:47:16;;;;;;;6.45;1.15;;;6.50;99.90;;;;;;5107676;28;20031;-68
2021/03/16 08:50:00;;;;;;;9.63;1.35;;;6.50;99.90;;;;;;5110572;28;20031;-70
2021/03/16 08:52:45;;;;;;;8.48;1.48;;;6.60;99.90;;;;;;5109522;28;20497;-69
2021/03/16 08:55:30;;;;;;;6.72;1.15;;;6.60;99.90;;;;;;5110376;28;20042;-69
2021/03/16 08:58:15;;;;;;;10.88;1.95;;;6.70;99.90;;;;;;5092690;28;20042;-69
2021/03/16 09:01:01;;;;;;;11.07;1.90;;;6.80;99.90;;;;;;5110660;27;20051;-69
2021/03/16 09:03:45;;;;;;;6.93;1.30;;;6.70;99.90;;;;;;5094299;28;20039;-69
2021/03/16 09:06:30;;;;;;;10.13;1.55;;;6.60;99.90;;;;;;5101354;27;20024;-69
2021/03/16 09:09:22;;;;;;;8.23;1.10;;;6.70;99.90;;;;;;5110002;28;20493;-69
2021/03/16 09:12:07;;;;;;;6.28;1.00;;;6.70;99.90;;;;;;5109613;28;20057;-69
2021/03/16 09:14:52;;;;;;;13.13;1.67;;;6.80;99.90;;;;;;5109217;28;20175;-69
2021/03/16 09:17:39;;;;;;;9.55;1.10;;;6.80;99.90;;;;;;5110581;28;20027;-69
2021/03/16 09:20:37;;;;;;;5.53;0.80;;;6.70;99.90;;;;;;5109743;28;20529;-69
2021/03/16 09:23:22;;;;;;;6.15;0.75;;;6.60;99.90;;;;;;5109624;28;20130;-69
2021/03/16 09:26:06;;;;;;;6.25;1.10;;;7.00;99.90;;;;;;5110124;28;20065;-69
2021/03/16 09:28:51;;;;;;;7.45;1.23;;;7.50;99.90;;;;;;5110264;28;20073;-69
2021/03/16 09:31:35;;;;;;;8.32;0.82;;;7.70;99.90;;;;;;5109010;28;20047;-70
2021/03/16 09:34:20;;;;;;;9.30;1.20;;;7.60;99.90;;;;;;5093675;28;20040;-69
2021/03/16 09:37:12;;;;;;;9.73;1.20;;;7.50;99.90;;;;;;5109219;28;20039;-69
2021/03/16 09:40:00;;;;;;;7.55;1.15;;;7.60;99.90;;;;;;5099287;28;20042;-70
2021/03/16 09:42:47;;;;;;;5.18;1.10;;;7.70;99.90;;;;;;5108314;28;20185;-69
2021/03/16 09:45:32;;;;;;;9.07;1.63;;;7.80;99.90;;;;;;5107926;28;20172;-69
2021/03/16 09:48:17;;;;;;;3.72;0.90;;;7.70;99.90;;;;;;5109617;28;20035;-69
2021/03/16 09:51:17;;;;;;;8.18;1.30;;;7.60;99.90;;;;;;5095494;28;20092;-69
2021/03/16 09:54:02;;;;;;;5.35;1.00;;;7.40;99.90;;;;;;5108642;28;20031;-69
2021/03/16 09:56:51;;;;;;;4.28;0.70;;;7.30;99.90;;;;;;5109388;27;20035;-69
2021/03/16 09:59:42;;;;;;;6.43;1.17;;;7.20;99.90;;;;;;5105060;28;20028;-69
2021/03/16 10:02:35;;;;;;;6.18;1.13;;;7.20;99.90;;;;;;5095964;28;20046;-69
2021/03/16 10:05:20;;;;;;;6.40;1.50;;;7.20;99.90;;;;;;5076978;28;20492;-69
2021/03/16 10:08:04;;;;;;;8.10;1.08;;;7.00;99.90;;;;;;5115801;28;20152;-69
2021/03/16 10:10:58;;;;;;;4.95;0.90;;;7.10;99.90;;;;;;5126331;27;20030;-69
2021/03/16 10:13:43;;;;;;;4.43;1.00;;;7.00;99.90;;;;;;5087843;28;20067;-69
2021/03/16 10:16:31;;;;;;;2.33;0.80;;;7.40;99.90;;;;;;5107042;28;20036;-68
2021/03/16 10:19:20;;;;;;;6.18;0.95;;;7.70;99.90;;;;;;5105643;28;20084;-69
2021/03/16 10:22:11;;;;;;;4.78;0.80;;;8.00;99.90;;;;;;5103413;28;20035;-69
2021/03/16 10:25:01;;;;;;;9.23;1.00;;;8.20;99.90;;;;;;5106420;28;20506;-69
2021/03/16 10:27:55;;;;;;;7.38;1.10;;;8.50;99.90;;;;;;5100191;28;20034;-70
2021/03/16 10:30:43;;;;;;;5.13;1.27;;;8.40;99.90;;;;;;5103928;28;20030;-69
2021/03/16 10:33:27;;;;;;;6.25;0.98;;;8.10;99.90;;;;;;5104952;28;20036;-69
2021/03/16 10:36:14;;;;;;;5.45;1.10;;;7.80;99.90;;;;;;5095112;28;20115;-69
2021/03/16 10:38:58;;;;;;;10.52;1.25;;;7.70;99.90;;;;;;5103353;28;20047;-69
2021/03/16 10:41:42;;;;;;;10.35;1.23;;;7.70;99.90;;;;;;5109280;28;20040;-70
2021/03/16 10:44:27;;;;;;;3.90;0.88;;;7.60;99.90;;;;;;5110380;28;20042;-70
2021/03/16 10:47:12;;;;;;;9.57;1.40;;;7.60;99.90;;;;;;5112706;28;20027;-70
2021/03/16 10:49:57;;;;;;;10.48;1.35;;;7.50;99.90;;;;;;5112402;28;20375;-69
2021/03/16 10:52:41;;;;;;;7.07;1.10;;;7.50;99.90;;;;;;5092469;28;20113;-70
2021/03/16 10:55:25;;;;;;;4.85;0.90;;;7.50;99.90;;;;;;5115963;27;20118;-70
2021/03/16 10:58:10;;;;;;;8.43;1.23;;;7.50;99.90;;;;;;5092392;28;20038;-70
2021/03/16 11:01:04;;;;;;;8.30;1.00;;;7.50;99.90;;;;;;5093466;28;20108;-70
2021/03/16 11:03:49;;;;;;;8.73;1.45;;;7.50;99.90;;;;;;5110779;28;20192;-69
2021/03/16 11:06:33;;;;;;;14.65;1.50;;;7.40;99.90;;;;;;5092994;28;20401;-69
2021/03/16 11:09:17;;;;;;;7.45;1.23;;;7.50;99.90;;;;;;5112302;28;20067;-69
2021/03/16 11:12:01;;;;;;;6.35;1.20;;;7.40;99.90;;;;;;5108995;28;20040;-68
2021/03/16 11:14:45;;;;;;;9.00;1.30;;;7.40;99.90;;;;;;5111664;28;20050;-70
2021/03/16 11:17:30;;;;;;;10.82;1.10;;;7.50;99.90;;;;;;5092541;28;20104;-70
2021/03/16 11:20:15;;;;;;;21.25;3.05;;;7.50;99.90;;;;;;5108270;28;20027;-69
2021/03/16 11:22:59;;;;;;;12.38;1.90;;;7.70;99.90;;;;;;5086074;28;20109;-70
2021/03/16 11:25:43;;;;;;;10.18;1.60;;;7.50;99.90;;;;;;5111080;28;20138;-70
2021/03/16 11:28:28;;;;;;;7.82;1.42;;;7.30;99.90;;;;;;5081066;28;20040;-70
2021/03/16 11:31:12;;;;;;;7.78;1.58;;;7.30;99.90;;;;;;5110794;28;20039;-70
2021/03/16 11:34:05;;;;;;;;;;;7.40;99.90;;;;;;5100466;28;20031;-69
2021/03/16 11:36:49;;;;;;;11.63;2.10;;;7.60;99.90;;;;;;5108352;28;19969;-70
2021/03/16 11:39:34;;;;;;;8.02;1.42;;;7.70;99.90;;;;;;5107342;27;20050;-70
2021/03/16 11:42:30;;;;;;;5.75;1.30;;;7.90;99.90;;;;;;5096864;28;20035;-69
2021/03/16 11:45:14;;;;;;;9.35;1.65;;;8.10;99.90;;;;;;5106284;28;20047;-69
2021/03/16 11:47:59;;;;;;;12.45;2.30;;;8.00;99.90;;;;;;5093111;28;20092;-68
2021/03/16 11:50:43;;;;;;;11.57;1.73;;;8.10;99.90;;;;;;5088558;28;20032;-69
2021/03/16 11:53:27;;;;;;;9.95;1.63;;;8.40;99.90;;;;;;5096549;28;20051;-69
2021/03/16 11:56:15;;;;;;;11.75;1.92;;;8.50;99.90;;;;;;5105050;28;20096;-69
2021/03/16 11:58:59;;;;;;;6.32;1.20;;;8.60;99.90;;;;;;5104415;28;20044;-69
2021/03/16 12:01:49;;;;;;;6.00;1.70;;;8.50;99.90;;;;;;5101610;28;20090;-69
2021/03/16 12:04:33;;;;;;;6.63;1.55;;;8.80;99.90;;;;;;5111287;28;20087;-69
2021/03/16 12:07:17;;;;;;;7.55;2.20;;;8.70;99.90;;;;;;5093089;28;20039;-69
2021/03/16 12:10:02;;;;;;;11.45;2.60;;;8.50;99.90;;;;;;5111804;28;20032;-69
2021/03/16 12:12:46;;;;;;;10.02;1.55;;;8.40;99.90;;;;;;5089090;28;20052;-69
2021/03/16 12:15:30;;;;;;;5.95;1.17;;;8.30;99.90;;;;;;5109969;28;20077;-69
2021/03/16 12:18:15;;;;;;;1.92;0.80;;;8.00;99.90;;;;;;5111977;28;20380;-69
2021/03/16 12:20:59;;;;;;;4.60;1.00;;;7.80;99.90;;;;;;5088735;28;20050;-69
2021/03/16 12:23:43;;;;;;;4.70;0.70;;;8.10;99.90;;;;;;5100123;27;20038;-69
2021/03/16 12:26:27;;;;;;;2.83;0.60;;;8.30;99.90;;;;;;5105125;27;20034;-69
2021/03/16 12:29:11;;;;;;;3.88;0.88;;;8.20;99.90;;;;;;5105867;27;20115;-70
2021/03/16 12:31:56;;;;;;;3.63;1.13;;;8.20;99.90;;;;;;5091937;28;20039;-70
2021/03/16 12:34:41;;;;;;;4.07;1.00;;;8.20;99.90;;;;;;5104389;28;20024;-70
2021/03/16 12:37:25;;;;;;;4.57;1.27;;;8.30;99.90;;;;;;5107000;28;20034;-69
2021/03/16 12:40:11;;;;;;;5.60;1.42;;;8.40;99.90;;;;;;5103006;28;20030;-69
2021/03/16 12:42:55;;;;;;;4.93;0.85;;;8.60;99.90;;;;;;5103371;28;20036;-69
2021/03/16 12:45:42;;;;;;;4.65;0.90;;;8.50;99.90;;;;;;5100266;28;20066;-70
2021/03/16 12:48:26;;;;;;;4.03;1.70;;;8.50;99.90;;;;;;5104142;28;20039;-69
2021/03/16 12:51:10;;;;;;;7.88;1.70;;;8.60;99.90;;;;;;5085174;28;20043;-69
2021/03/16 12:53:54;;;;;;;7.25;1.80;;;8.50;99.90;;;;;;5109757;28;20154;-69
2021/03/16 12:56:39;;;;;;;4.55;1.80;;;8.50;99.90;;;;;;5118673;27;20043;-69
2021/03/16 12:59:23;;;;;;;5.78;1.35;;;8.60;99.90;;;;;;5107980;28;20032;-70
2021/03/16 13:02:07;;;;;;;5.38;1.20;;;8.60;99.90;;;;;;5109133;28;20104;-69
2021/03/16 13:04:51;;;;;;;7.45;1.38;;;8.60;99.90;;;;;;5098520;27;20118;-69
2021/03/16 13:07:36;;;;;;;6.28;1.15;;;8.60;99.90;;;;;;5085313;28;20082;-69
2021/03/16 13:10:20;;;;;;;2.95;1.08;;;8.80;99.90;;;;;;5102347;28;20032;-69
2021/03/16 13:13:09;;;;;;;5.63;1.20;;;8.60;99.90;;;;;;5110579;28;20031;-69
2021/03/16 13:15:54;;;;;;;8.45;1.65;;;8.40;99.90;;;;;;5089685;28;20028;-69
2021/03/16 13:18:38;;;;;;;5.80;1.83;;;8.30;99.90;;;;;;5104790;28;20123;-69
2021/03/16 13:21:22;;;;;;;3.78;1.10;;;7.70;99.90;;;;;;5109942;28;20506;-69
2021/03/16 13:24:07;;;;;;;4.95;1.55;;;7.10;99.90;;;;;;5091573;28;20430;-69
2021/03/16 13:26:52;;;;;;;2.40;1.10;;;6.80;99.90;;;;;;5108276;28;20035;-70
2021/03/16 13:29:36;;;;;;;4.53;0.90;;;6.80;99.90;;;;;;5108203;28;20031;-69
2021/03/16 13:32:21;;;;;;;3.25;1.00;;;6.80;99.90;;;;;;5077460;28;20042;-69
2021/03/16 13:35:05;;;;;;;5.05;1.70;;;6.90;99.90;;;;;;5104573;28;20032;-69
2021/03/16 13:37:50;;;;;;;6.57;1.42;;;7.00;99.90;;;;;;5107677;27;20035;-70
2021/03/16 13:40:35;;;;;;;5.70;1.30;;;7.30;99.90;;;;;;5077973;28;20038;-70
2021/03/16 13:43:20;;;;;;;5.47;1.67;;;7.30;99.90;;;;;;5096218;28;20134;-70
2021/03/16 13:46:05;;;;;;;7.35;1.60;;;7.40;99.90;;;;;;5113811;27;20140;-70
2021/03/16 13:48:50;;;;;;;7.05;2.28;;;7.20;99.90;;;;;;5095197;28;20092;-70
2021/03/16 13:51:34;;;;;;;9.50;2.00;;;7.10;99.90;;;;;;5109682;28;20039;-70
2021/03/16 13:54:18;;;;;;;6.55;2.10;;;7.10;99.90;;;;;;5092569;28;20031;-69
2021/03/16 13:57:02;;;;;;;10.07;2.05;;;7.10;99.90;;;;;;5109810;28;20059;-69
2021/03/16 13:59:46;;;;;;;8.93;2.00;;;7.10;99.90;;;;;;5099572;28;20036;-69
2021/03/16 14:02:31;;;;;;;10.93;2.22;;;7.20;99.90;;;;;;5088607;28;20031;-69
2021/03/16 14:05:15;;;;;;;10.95;2.08;;;7.40;99.90;;;;;;5109970;28;20088;-69
2021/03/16 14:07:59;;;;;;;9.68;2.25;;;7.40;99.90;;;;;;5100901;28;20047;-69
2021/03/16 14:10:44;;;;;;;11.05;2.35;;;7.30;99.90;;;;;;5100110;28;20089;-69
2021/03/16 14:13:28;;;;;;;6.70;2.80;;;7.30;99.90;;;;;;5100573;28;20039;-70
2021/03/16 14:16:12;;;;;;;10.70;2.78;;;7.30;99.90;;;;;;5085889;28;20039;-70
2021/03/16 14:18:56;;;;;;;11.35;3.05;;;7.60;99.90;;;;;;5087284;28;20067;-69
2021/03/16 14:21:40;;;;;;;7.22;2.58;;;8.40;99.90;;;;;;5111631;28;20023;-70
2021/03/16 14:24:25;;;;;;;8.18;2.38;;;9.00;99.90;;;;;;5111057;28;20428;-69
2021/03/16 14:27:09;;;;;;;5.07;1.70;;;9.50;99.90;;;;;;5109423;28;20036;-69
2021/03/16 14:29:54;;;;;;;7.45;1.60;;;9.90;99.90;;;;;;5111948;28;20371;-69
2021/03/16 14:32:39;;;;;;;8.90;2.15;;;9.50;99.90;;;;;;5106153;28;20101;-69
2021/03/16 14:35:23;;;;;;;5.05;2.30;;;9.10;99.90;;;;;;5111889;28;20070;-69